Time;durP1;ratioP1;P1;durP2;ratioP2;P2;SDS_P1;SDS_P2;PMS_P1;PMS_P2;Temp;Humidity;BMP_temperature;BMP_pressure;BME280_temperature;BME280_humidity;BME280_pressure;Samples;Min_cycle;Max_cycle;Signal;HPM_P1;HPM_P2
2022/02/03 00:02:25;;;;;;;4.20;3.60;;;7.20;99.90;;;;;;5070954;28;20279;-49
2022/02/03 00:05:00;;;;;;;3.38;2.88;;;7.20;99.90;;;;;;5090508;28;20219;-50
2022/02/03 00:07:35;;;;;;;3.30;3.00;;;7.20;99.90;;;;;;5090379;28;20563;-50
2022/02/03 00:10:34;;;;;;;3.10;2.80;;;7.20;99.90;;;;;;5091318;28;20282;-50
2022/02/03 00:24:54;;;;;;;4.03;2.80;;;7.30;99.90;;;;;;5086312;28;20425;-50
2022/02/03 00:30:34;;;;;;;2.83;2.63;;;7.30;99.90;;;;;;5059764;28;20705;-50
2022/02/03 00:35:59;;;;;;;3.35;3.05;;;7.20;99.90;;;;;;5070489;28;20626;-50
2022/02/03 00:49:42;;;;;;;3.13;2.65;;;7.30;99.90;;;;;;5084865;28;20273;-50
2022/02/03 00:52:11;;;;;;;3.13;2.83;;;7.20;99.90;;;;;;5090405;28;20195;-50
2022/02/03 00:54:39;;;;;;;2.85;2.65;;;7.30;99.90;;;;;;5090647;28;20250;-49
2022/02/03 00:57:10;;;;;;;4.75;2.95;;;7.30;99.90;;;;;;5086326;28;20284;-50
2022/02/03 00:59:39;;;;;;;3.80;3.38;;;7.30;99.90;;;;;;5070461;28;20254;-49
2022/02/03 01:02:14;;;;;;;3.08;2.80;;;7.20;99.90;;;;;;5091759;28;20330;-50
2022/02/03 01:04:44;;;;;;;3.67;3.25;;;7.30;99.90;;;;;;5069812;28;20278;-50
2022/02/03 01:07:16;;;;;;;2.95;2.70;;;7.30;99.90;;;;;;5069931;28;20303;-50
2022/02/03 01:09:55;;;;;;;3.03;2.53;;;7.20;99.90;;;;;;5069539;28;20318;-50
2022/02/03 01:12:32;;;;;;;3.78;3.47;;;7.30;99.90;;;;;;5070156;28;20257;-50
2022/02/03 01:15:13;;;;;;;2.90;2.70;;;7.30;99.90;;;;;;5087694;28;20215;-50
2022/02/03 01:17:49;;;;;;;3.22;2.92;;;7.30;99.90;;;;;;5069992;28;20193;-49
2022/02/03 01:20:51;;;;;;;3.22;2.70;;;7.20;99.90;;;;;;5069924;28;20281;-50
2022/02/03 01:34:44;;;;;;;3.45;3.15;;;7.30;99.90;;;;;;5069756;28;20236;-49
2022/02/03 01:37:36;;;;;;;3.33;2.55;;;7.30;99.90;;;;;;5069951;28;20661;-50
2022/02/03 01:43:21;;;;;;;3.03;2.60;;;7.30;99.90;;;;;;5069046;28;20197;-50
2022/02/03 01:45:54;;;;;;;3.58;2.60;;;7.30;99.90;;;;;;5070387;28;20211;-50
2022/02/03 01:48:37;;;;;;;3.00;2.80;;;7.20;99.90;;;;;;5076890;28;20627;-51
2022/02/03 01:53:55;;;;;;;2.75;2.55;;;7.30;99.90;;;;;;5069485;28;20754;-50
2022/02/03 01:56:36;;;;;;;2.38;2.17;;;7.30;99.90;;;;;;5070069;28;20249;-50
2022/02/03 01:59:05;;;;;;;4.57;3.20;;;7.30;99.90;;;;;;5070045;28;20240;-50
2022/02/03 02:01:35;;;;;;;3.17;2.88;;;7.30;99.90;;;;;;5069731;28;20247;-51
2022/02/03 02:04:11;;;;;;;2.90;2.70;;;7.30;99.90;;;;;;5076551;28;20634;-50
2022/02/03 02:07:21;;;;;;;3.10;2.63;;;7.30;99.90;;;;;;5070216;28;20290;-50
2022/02/03 02:10:11;;;;;;;3.50;2.95;;;7.30;99.90;;;;;;5069902;28;20669;-50
2022/02/03 02:12:56;;;;;;;2.47;2.25;;;7.30;99.90;;;;;;5076812;28;20196;-49
2022/02/03 02:15:56;;;;;;;2.85;2.65;;;7.30;99.90;;;;;;5089320;28;20217;-50
2022/02/03 02:38:43;;;;;;;2.38;2.15;;;7.30;99.90;;;;;;5045129;28;20216;-50
2022/02/03 02:44:11;;;;;;;2.05;1.85;;;7.30;99.90;;;;;;5046416;28;20767;-50
2022/02/03 02:46:48;;;;;;;2.33;2.13;;;7.30;99.90;;;;;;5072697;28;20198;-50
2022/02/03 02:49:25;;;;;;;2.55;2.35;;;7.30;99.90;;;;;;5071895;28;20729;-50
2022/02/03 02:51:59;;;;;;;2.78;2.50;;;7.30;99.90;;;;;;5069253;28;20233;-50
2022/02/03 02:54:53;;;;;;;2.85;2.35;;;7.30;99.90;;;;;;5087343;28;20664;-51
2022/02/03 02:57:58;;;;;;;3.65;3.00;;;7.30;99.90;;;;;;5067516;28;20214;-50
2022/02/03 03:29:24;;;;;;;2.65;2.45;;;7.30;99.90;;;;;;5087408;28;20297;-50
2022/02/03 03:32:14;;;;;;;2.58;2.38;;;7.30;99.90;;;;;;5088117;28;20191;-51
2022/02/03 03:34:59;;;;;;;3.20;2.90;;;7.30;99.90;;;;;;5067188;28;20316;-51
2022/02/03 03:37:34;;;;;;;2.45;2.25;;;7.30;99.90;;;;;;5067181;28;20582;-51
2022/02/03 03:40:05;;;;;;;2.92;2.30;;;7.30;99.90;;;;;;5071532;28;20782;-50
2022/02/03 03:42:35;;;;;;;2.83;2.58;;;7.30;99.90;;;;;;5084524;28;20189;-50
2022/02/03 03:45:06;;;;;;;2.85;2.55;;;7.30;99.90;;;;;;5074541;28;20222;-50
2022/02/03 03:47:36;;;;;;;2.38;2.00;;;7.30;99.90;;;;;;5079464;28;20194;-50
2022/02/03 03:50:11;;;;;;;2.42;2.20;;;7.30;99.90;;;;;;5070399;28;20749;-50
2022/02/03 03:52:49;;;;;;;3.25;2.60;;;7.30;99.90;;;;;;5070968;28;20251;-50
2022/02/03 03:55:30;;;;;;;4.70;2.85;;;7.30;99.90;;;;;;5069812;28;20645;-51
2022/02/03 03:58:18;;;;;;;2.83;1.98;;;7.30;99.90;;;;;;5071170;28;20192;-50
2022/02/03 04:38:38;;;;;;;2.10;1.90;;;7.30;99.90;;;;;;5081399;28;20189;-49
2022/02/03 04:56:46;;;;;;;2.35;2.15;;;7.30;99.90;;;;;;5029993;28;20217;-51
2022/02/03 05:02:39;;;;;;;2.95;2.65;;;7.30;99.90;;;;;;5082807;28;20253;-50
2022/02/03 05:05:38;;;;;;;3.47;2.65;;;7.30;99.90;;;;;;5068417;28;20222;-50
2022/02/03 05:08:32;;;;;;;2.75;2.55;;;7.30;99.90;;;;;;5069969;28;20267;-50
2022/02/03 05:11:25;;;;;;;3.00;2.40;;;7.30;99.90;;;;;;5071835;28;20230;-49
2022/02/03 05:17:21;;;;;;;2.40;2.20;;;7.30;99.90;;;;;;5025473;28;20200;-51
2022/02/03 05:23:33;;;;;;;2.22;1.88;;;7.30;99.90;;;;;;5069390;28;20200;-51
2022/02/03 05:26:25;;;;;;;2.40;2.20;;;7.30;99.90;;;;;;5069120;28;20310;-49
2022/02/03 05:32:41;;;;;;;3.05;2.85;;;7.30;99.90;;;;;;5086086;28;20257;-50
2022/02/03 05:44:25;;;;;;;3.03;2.40;;;7.30;99.90;;;;;;5068877;28;20199;-50
2022/02/03 05:47:05;;;;;;;2.10;1.90;;;7.30;99.90;;;;;;5069426;28;20195;-50
2022/02/03 05:50:00;;;;;;;2.50;2.30;;;7.30;99.90;;;;;;5067915;28;20233;-50
2022/02/03 06:01:16;;;;;;;2.22;2.05;;;7.30;99.90;;;;;;5068483;28;20314;-50
2022/02/03 06:04:09;;;;;;;2.42;1.90;;;7.30;99.90;;;;;;5066702;28;20226;-50
2022/02/03 06:09:33;;;;;;;1.98;1.80;;;7.30;99.90;;;;;;5046821;28;20243;-50
2022/02/03 06:12:31;;;;;;;2.80;2.50;;;7.30;99.90;;;;;;5072556;28;20188;-50
2022/02/03 06:15:05;;;;;;;2.05;1.90;;;7.30;99.90;;;;;;5067811;28;20237;-49
2022/02/03 06:20:40;;;;;;;1.83;1.73;;;7.30;99.90;;;;;;5069030;28;20338;-50
2022/02/03 06:21:15;;;;;;;2.38;2.17;;;7.30;99.90;;;;;;5077894;28;20219;-49
2022/02/03 06:29:24;;;;;;;3.10;2.55;;;7.30;99.90;;;;;;5087550;28;20710;-50
2022/02/03 06:31:54;;;;;;;1.98;1.88;;;7.30;99.90;;;;;;5088201;28;20191;-50
2022/02/03 06:34:24;;;;;;;2.17;1.98;;;7.30;99.90;;;;;;5067848;28;20235;-50
2022/02/03 06:36:53;;;;;;;2.78;1.92;;;7.30;99.90;;;;;;5072330;28;20682;-50
2022/02/03 06:39:24;;;;;;;2.47;1.88;;;7.30;99.90;;;;;;5073582;28;20265;-50
2022/02/03 06:41:56;;;;;;;1.80;1.70;;;7.30;99.90;;;;;;5067956;28;20203;-51
2022/02/03 06:44:30;;;;;;;2.35;1.85;;;7.30;99.90;;;;;;5067920;28;20245;-50
2022/02/03 06:47:04;;;;;;;2.33;2.10;;;7.30;99.90;;;;;;5068492;28;20193;-50
2022/02/03 06:49:43;;;;;;;1.73;1.63;;;7.30;99.90;;;;;;5073347;28;20237;-50
2022/02/03 06:52:16;;;;;;;2.30;2.13;;;7.30;99.90;;;;;;5079016;28;20199;-50
2022/02/03 06:54:56;;;;;;;2.47;1.90;;;7.30;99.90;;;;;;5067738;28;20231;-51
2022/02/03 06:57:30;;;;;;;2.10;1.90;;;7.30;99.90;;;;;;5068018;28;20191;-50
2022/02/03 07:00:01;;;;;;;2.30;1.88;;;7.40;99.90;;;;;;5071987;28;20216;-50
2022/02/03 07:02:30;;;;;;;1.70;1.60;;;7.30;99.90;;;;;;5077755;28;20294;-50
2022/02/03 07:05:00;;;;;;;1.95;1.80;;;7.30;99.90;;;;;;5067164;28;20215;-50
2022/02/03 07:07:30;;;;;;;2.50;1.60;;;7.30;99.90;;;;;;5079934;28;20225;-50
2022/02/03 07:09:58;;;;;;;2.30;2.10;;;7.30;99.90;;;;;;5067546;28;20223;-50
2022/02/03 07:12:27;;;;;;;2.17;2.00;;;7.30;99.90;;;;;;5067634;28;20245;-49
2022/02/03 07:14:55;;;;;;;1.95;1.85;;;7.40;99.90;;;;;;5068245;28;20710;-50
2022/02/03 07:17:23;;;;;;;1.90;1.80;;;7.40;99.90;;;;;;5084034;28;20690;-49
2022/02/03 07:19:54;;;;;;;1.98;1.88;;;7.30;99.90;;;;;;5070928;28;20445;-50
2022/02/03 07:22:26;;;;;;;2.13;1.92;;;7.40;99.90;;;;;;5071024;28;20757;-49
2022/02/03 07:24:54;;;;;;;2.00;1.80;;;7.40;99.90;;;;;;5072693;28;20701;-51
2022/02/03 07:27:23;;;;;;;1.75;1.65;;;7.40;99.90;;;;;;5082633;28;20746;-49
2022/02/03 07:29:54;;;;;;;2.50;2.28;;;7.30;99.90;;;;;;5088716;28;20244;-49
2022/02/03 07:32:23;;;;;;;2.42;1.58;;;7.30;99.90;;;;;;5086976;28;20299;-50
2022/02/03 07:34:54;;;;;;;2.45;1.80;;;7.30;99.90;;;;;;5071361;28;20314;-50
2022/02/03 07:37:25;;;;;;;2.50;1.85;;;7.30;99.90;;;;;;5076942;28;20201;-50
2022/02/03 07:39:53;;;;;;;2.75;2.10;;;7.30;99.90;;;;;;5092169;28;20221;-50
2022/02/03 07:42:28;;;;;;;2.10;1.90;;;7.40;99.90;;;;;;5075810;28;20215;-50
2022/02/03 07:44:56;;;;;;;1.70;1.60;;;7.40;99.90;;;;;;5076994;28;20241;-51
2022/02/03 07:47:24;;;;;;;1.92;1.58;;;7.30;99.90;;;;;;5090020;28;20194;-49
2022/02/03 07:49:52;;;;;;;1.92;1.80;;;7.40;99.90;;;;;;5070868;28;20244;-50
2022/02/03 07:52:21;;;;;;;1.90;1.80;;;7.30;99.90;;;;;;5072262;28;20184;-50
2022/02/03 07:54:50;;;;;;;1.77;1.67;;;7.30;99.90;;;;;;5076358;28;20257;-50
2022/02/03 07:57:22;;;;;;;2.10;1.90;;;7.40;99.90;;;;;;5086777;28;20189;-50
2022/02/03 07:59:50;;;;;;;2.95;2.22;;;7.30;99.90;;;;;;5082559;28;20219;-49
2022/02/03 08:02:18;;;;;;;1.98;1.77;;;7.40;99.90;;;;;;5091196;28;20282;-50
2022/02/03 08:04:48;;;;;;;1.95;1.80;;;7.30;99.90;;;;;;5073498;28;20303;-50
2022/02/03 08:07:19;;;;;;;1.67;1.58;;;7.30;99.90;;;;;;5071815;28;20185;-51
2022/02/03 08:09:55;;;;;;;2.03;1.83;;;7.40;99.90;;;;;;5082845;28;20318;-50
2022/02/03 08:12:29;;;;;;;2.22;2.05;;;7.40;99.90;;;;;;5079236;28;20562;-50
2022/02/03 08:14:59;;;;;;;1.65;1.55;;;7.40;99.90;;;;;;5071325;28;20219;-49
2022/02/03 08:17:35;;;;;;;1.90;1.80;;;7.40;99.90;;;;;;5071697;28;20229;-50
2022/02/03 08:20:07;;;;;;;1.90;1.70;;;7.40;99.90;;;;;;5089144;28;20250;-49
2022/02/03 08:22:39;;;;;;;2.03;1.80;;;7.40;99.90;;;;;;5091516;28;20192;-50
2022/02/03 08:25:14;;;;;;;2.08;1.70;;;7.30;99.90;;;;;;5090821;28;20751;-50
2022/02/03 08:28:04;;;;;;;2.35;2.15;;;7.40;99.90;;;;;;5073342;28;20185;-49
2022/02/03 08:30:45;;;;;;;2.10;1.90;;;7.30;99.90;;;;;;5070818;28;20220;-50
2022/02/03 08:33:18;;;;;;;1.70;1.60;;;7.40;99.90;;;;;;5071252;28;20188;-49
2022/02/03 08:35:49;;;;;;;2.58;2.33;;;7.40;99.90;;;;;;5075985;28;20311;-50
2022/02/03 08:38:22;;;;;;;1.98;1.60;;;7.30;99.90;;;;;;5090758;28;20633;-50
2022/02/03 08:41:02;;;;;;;1.63;1.52;;;7.40;99.90;;;;;;5091323;28;20273;-50
2022/02/03 08:43:33;;;;;;;1.70;1.60;;;7.40;99.90;;;;;;5083064;28;20253;-49
2022/02/03 08:46:04;;;;;;;1.70;1.60;;;7.40;99.90;;;;;;5090504;28;20290;-50
2022/02/03 08:48:33;;;;;;;1.75;1.65;;;7.40;99.90;;;;;;5071209;28;20203;-50
2022/02/03 08:51:03;;;;;;;2.78;1.60;;;7.40;99.90;;;;;;5074717;28;20239;-49
2022/02/03 08:53:36;;;;;;;2.78;2.58;;;7.40;99.90;;;;;;5091005;28;20611;-49
2022/02/03 08:56:22;;;;;;;2.60;2.00;;;7.40;99.90;;;;;;5074155;28;20196;-50
2022/02/03 09:36:20;;;;;;;1.90;1.80;;;7.40;99.90;;;;;;5027745;28;20251;-51
2022/02/03 09:39:02;;;;;;;1.92;1.75;;;7.40;99.90;;;;;;5026555;28;21673;-50
2022/02/03 09:53:15;;;;;;;1.65;1.55;;;7.40;99.90;;;;;;5044676;28;20202;-50
2022/02/03 09:56:05;;;;;;;2.10;1.90;;;7.40;99.90;;;;;;5088722;28;20217;-51
2022/02/03 09:58:41;;;;;;;1.90;1.70;;;7.40;99.90;;;;;;5068882;28;20251;-50
2022/02/03 10:01:13;;;;;;;1.92;1.73;;;7.40;99.90;;;;;;5069022;28;20841;-49
2022/02/03 10:03:50;;;;;;;1.92;1.70;;;7.40;99.90;;;;;;5074068;28;20199;-49
2022/02/03 10:06:24;;;;;;;2.45;2.25;;;7.40;99.90;;;;;;5089383;28;20223;-49
2022/02/03 10:08:55;;;;;;;1.63;1.52;;;7.30;99.90;;;;;;5088381;28;20732;-50
2022/02/03 10:11:24;;;;;;;2.05;1.90;;;7.40;99.90;;;;;;5089512;28;20196;-49
2022/02/03 10:13:54;;;;;;;2.15;1.92;;;7.40;99.90;;;;;;5089539;28;20657;-50
2022/02/03 10:16:28;;;;;;;2.15;1.90;;;7.40;99.90;;;;;;5083058;28;20552;-49
2022/02/03 10:19:03;;;;;;;2.13;1.92;;;7.40;99.90;;;;;;5068417;28;20230;-50
2022/02/03 10:21:34;;;;;;;1.60;1.50;;;7.40;99.90;;;;;;5069558;28;20539;-49
2022/02/03 10:24:06;;;;;;;1.67;1.58;;;7.40;99.90;;;;;;5070640;28;20254;-50
2022/02/03 10:26:36;;;;;;;2.00;1.70;;;7.40;99.90;;;;;;5069065;28;20245;-50
2022/02/03 10:29:06;;;;;;;2.10;1.75;;;7.40;99.90;;;;;;5068892;28;20233;-50
2022/02/03 10:31:54;;;;;;;2.40;1.85;;;7.40;99.90;;;;;;5069771;28;20215;-51
2022/02/03 10:34:29;;;;;;;2.15;1.98;;;7.40;99.90;;;;;;5068030;28;20221;-49
2022/02/03 10:37:07;;;;;;;2.22;2.03;;;7.30;99.90;;;;;;5068917;28;20233;-49
2022/02/03 10:43:02;;;;;;;2.25;1.67;;;7.40;99.90;;;;;;5070931;28;20229;-50
2022/02/03 10:49:00;;;;;;;3.00;2.80;;;7.40;99.90;;;;;;5057982;28;20474;-50
2022/02/03 10:51:44;;;;;;;2.75;2.30;;;7.40;99.90;;;;;;5069627;28;20214;-49
2022/02/03 10:54:39;;;;;;;1.70;1.60;;;7.40;99.90;;;;;;5069739;28;20225;-50
2022/02/03 10:57:36;;;;;;;2.35;2.17;;;7.40;99.90;;;;;;5069630;28;20201;-50
2022/02/03 11:00:50;;;;;;;2.35;2.15;;;7.40;99.90;;;;;;5067653;28;20255;-49
2022/02/03 11:03:26;;;;;;;2.13;1.92;;;7.40;99.90;;;;;;5075726;28;20200;-50
2022/02/03 11:06:09;;;;;;;2.30;2.10;;;7.40;99.90;;;;;;5088068;28;20213;-50
2022/02/03 11:08:45;;;;;;;3.35;2.17;;;7.40;99.90;;;;;;5084280;28;20642;-50
2022/02/03 11:11:19;;;;;;;2.53;1.63;;;7.40;99.90;;;;;;5080525;28;20207;-50
2022/02/03 11:13:50;;;;;;;2.22;2.00;;;7.40;99.90;;;;;;5075143;28;20226;-50
2022/02/03 11:16:19;;;;;;;2.40;2.20;;;7.40;99.90;;;;;;5067186;28;20186;-50
2022/02/03 11:18:48;;;;;;;2.20;2.03;;;7.40;99.90;;;;;;5071901;28;20224;-49
2022/02/03 11:21:17;;;;;;;2.25;2.00;;;7.40;99.90;;;;;;5066804;28;20224;-50
2022/02/03 11:23:50;;;;;;;1.70;1.60;;;7.40;99.90;;;;;;5075588;28;20773;-49
2022/02/03 11:26:27;;;;;;;2.97;1.80;;;7.40;99.90;;;;;;5086153;28;20206;-51
2022/02/03 11:32:08;;;;;;;2.15;1.98;;;7.40;99.90;;;;;;5078165;28;20199;-50
2022/02/03 11:37:53;;;;;;;2.47;2.28;;;7.40;99.90;;;;;;5067856;28;20206;-50
2022/02/03 11:55:15;;;;;;;1.90;1.77;;;7.40;99.90;;;;;;5066383;28;20232;-49
2022/02/03 12:00:55;;;;;;;1.83;1.73;;;7.40;99.90;;;;;;5064600;28;20262;-50
2022/02/03 12:18:10;;;;;;;2.20;1.92;;;7.40;99.90;;;;;;5100441;27;20539;-49
2022/02/03 12:20:46;;;;;;;2.63;2.10;;;7.40;99.90;;;;;;5029833;27;20247;-49
2022/02/03 12:23:55;;;;;;;1.65;1.55;;;7.40;99.90;;;;;;5025003;28;20298;-49
2022/02/03 12:26:38;;;;;;;2.20;1.88;;;7.40;99.90;;;;;;5029985;28;20216;-49
2022/02/03 12:29:14;;;;;;;2.50;2.08;;;7.40;99.90;;;;;;5050501;28;20295;-49
2022/02/03 12:31:58;;;;;;;2.15;1.95;;;7.40;99.90;;;;;;5047605;28;20197;-49
2022/02/03 12:37:33;;;;;;;2.25;2.05;;;7.40;99.90;;;;;;5058660;28;20297;-54
2022/02/03 12:40:04;;;;;;;5.43;3.40;;;7.40;99.90;;;;;;5060235;28;20513;-52
2022/02/03 12:45:23;;;;;;;2.85;2.55;;;7.50;99.90;;;;;;5047230;28;20239;-52
2022/02/03 12:47:53;;;;;;;3.65;2.53;;;7.50;99.90;;;;;;5046467;28;20492;-51
2022/02/03 12:50:25;;;;;;;2.50;2.08;;;7.50;99.90;;;;;;5044238;28;20697;-51
2022/02/03 12:52:54;;;;;;;3.75;2.47;;;7.40;99.90;;;;;;5049348;28;20223;-51
2022/02/03 12:55:34;;;;;;;2.78;2.42;;;7.40;99.90;;;;;;5063677;28;20214;-51
2022/02/03 12:58:05;;;;;;;1.75;1.65;;;7.50;99.90;;;;;;5057258;28;20217;-51
2022/02/03 13:00:41;;;;;;;4.07;2.30;;;7.40;99.90;;;;;;5043674;28;20226;-51
2022/02/03 13:03:31;;;;;;;2.50;2.30;;;7.40;99.90;;;;;;5051592;28;20189;-51
2022/02/03 13:06:03;;;;;;;2.35;2.13;;;7.40;99.90;;;;;;5045166;28;20266;-51
2022/02/03 13:08:34;;;;;;;3.15;2.80;;;7.40;99.90;;;;;;5028072;28;20189;-51
2022/02/03 13:11:12;;;;;;;2.60;2.33;;;7.40;99.90;;;;;;5042290;28;20201;-50
2022/02/03 13:13:52;;;;;;;2.33;2.00;;;7.40;99.90;;;;;;5045934;28;20198;-51
2022/02/03 13:16:22;;;;;;;2.92;2.60;;;7.40;99.90;;;;;;5044112;28;20224;-51
2022/02/03 13:19:05;;;;;;;2.60;2.40;;;7.40;99.90;;;;;;5054595;28;20258;-51
2022/02/03 13:21:49;;;;;;;2.58;2.20;;;7.40;99.90;;;;;;5044555;28;20196;-51
2022/02/03 13:27:04;;;;;;;2.63;1.98;;;7.40;99.90;;;;;;5043983;28;20204;-51
2022/02/03 13:29:40;;;;;;;4.68;2.70;;;7.40;99.90;;;;;;5029315;28;20279;-51
2022/02/03 13:32:11;;;;;;;3.33;2.40;;;7.40;99.90;;;;;;5030995;28;20247;-51
2022/02/03 13:34:53;;;;;;;2.42;2.22;;;7.40;99.90;;;;;;5046785;28;20590;-51
2022/02/03 13:37:32;;;;;;;3.38;2.50;;;7.40;99.90;;;;;;5040153;28;20216;-51
2022/02/03 13:40:10;;;;;;;3.25;2.20;;;7.40;99.90;;;;;;5035784;28;20290;-51
2022/02/03 13:42:45;;;;;;;2.88;2.67;;;7.40;99.90;;;;;;5050545;28;20306;-52
2022/02/03 13:45:14;;;;;;;2.58;2.35;;;7.40;99.90;;;;;;5033133;28;20214;-51
2022/02/03 13:47:48;;;;;;;2.80;2.60;;;7.40;99.90;;;;;;5032950;28;20711;-50
2022/02/03 13:50:22;;;;;;;2.08;1.88;;;7.40;99.90;;;;;;5039080;28;20304;-50
2022/02/03 13:52:58;;;;;;;7.20;2.88;;;7.40;99.90;;;;;;5033300;28;20191;-51
2022/02/03 14:15:55;;;;;;;2.40;2.20;;;7.40;99.90;;;;;;5008642;28;20225;-52
2022/02/03 14:18:35;;;;;;;3.05;2.70;;;7.40;99.90;;;;;;5028519;28;20245;-51
2022/02/03 14:21:05;;;;;;;2.45;2.25;;;7.40;99.90;;;;;;5050196;28;20296;-51
2022/02/03 14:29:11;;;;;;;2.30;2.10;;;7.40;99.90;;;;;;5050168;28;20239;-51
2022/02/03 14:31:41;;;;;;;2.80;2.55;;;7.40;99.90;;;;;;5050061;28;20655;-52
2022/02/03 14:34:14;;;;;;;2.35;2.00;;;7.40;99.90;;;;;;5047193;28;20711;-52
2022/02/03 14:36:47;;;;;;;2.58;2.38;;;7.40;99.90;;;;;;5036637;28;20204;-51
2022/02/03 14:39:19;;;;;;;2.50;2.28;;;7.40;99.90;;;;;;5028732;28;20231;-51
2022/02/03 14:41:50;;;;;;;4.07;2.35;;;7.40;99.90;;;;;;5036123;28;20531;-51
2022/02/03 14:44:19;;;;;;;2.70;1.95;;;7.40;99.90;;;;;;5049837;28;20279;-52
2022/02/03 14:46:47;;;;;;;2.90;2.60;;;7.40;99.90;;;;;;5037590;28;20197;-51
2022/02/03 14:49:15;;;;;;;3.15;2.80;;;7.40;99.90;;;;;;5041233;28;20656;-51
2022/02/03 14:51:51;;;;;;;3.30;2.58;;;7.40;99.90;;;;;;5037346;28;20196;-52
2022/02/03 14:58:01;;;;;;;2.90;2.30;;;7.40;99.90;;;;;;5029225;28;20706;-51
2022/02/03 15:00:08;;;;;;;2.80;2.60;;;7.40;99.90;;;;;;5047099;28;20282;-51
2022/02/03 15:02:37;;;;;;;2.20;1.92;;;7.40;99.90;;;;;;5033001;28;20887;-52
2022/02/03 15:05:09;;;;;;;2.85;2.55;;;7.40;99.90;;;;;;5048812;28;20216;-51
2022/02/03 15:07:41;;;;;;;2.40;2.20;;;7.40;99.90;;;;;;5029674;28;20736;-51
2022/02/03 15:10:28;;;;;;;3.03;2.72;;;7.40;99.90;;;;;;5029334;28;20256;-51
2022/02/03 15:13:04;;;;;;;2.50;2.30;;;7.40;99.90;;;;;;5030281;28;20198;-51
2022/02/03 15:15:32;;;;;;;2.63;2.42;;;7.40;99.90;;;;;;5028218;28;20272;-51
2022/02/03 15:18:00;;;;;;;2.35;2.15;;;7.40;99.90;;;;;;5047662;28;20711;-53
2022/02/03 15:20:30;;;;;;;2.72;2.53;;;7.40;99.90;;;;;;5048125;28;20216;-51
2022/02/03 15:23:00;;;;;;;2.53;2.33;;;7.40;99.90;;;;;;5037630;28;20603;-52
2022/02/03 15:25:28;;;;;;;2.80;2.50;;;7.40;99.90;;;;;;5047000;28;20220;-52
2022/02/03 15:27:58;;;;;;;3.63;2.83;;;7.40;99.90;;;;;;5044118;28;20185;-52
2022/02/03 15:30:27;;;;;;;2.67;2.15;;;7.40;99.90;;;;;;5048590;28;20330;-52
2022/02/03 15:32:55;;;;;;;3.03;2.47;;;7.40;99.90;;;;;;5047417;28;20741;-51
2022/02/03 15:35:29;;;;;;;2.95;2.10;;;7.40;99.90;;;;;;5048275;28;20224;-51
2022/02/03 15:37:57;;;;;;;2.53;2.33;;;7.40;99.90;;;;;;5048860;28;20221;-51
2022/02/03 15:40:27;;;;;;;2.30;2.10;;;7.40;99.90;;;;;;5048334;28;20218;-51
2022/02/03 15:43:03;;;;;;;2.33;2.13;;;7.40;99.90;;;;;;5046987;28;20225;-52
2022/02/03 15:45:36;;;;;;;3.08;2.30;;;7.40;99.90;;;;;;5047485;28;20216;-52
2022/02/03 15:48:12;;;;;;;3.58;2.53;;;7.40;99.90;;;;;;5036254;28;20232;-51
2022/02/03 15:51:01;;;;;;;2.70;2.45;;;7.40;99.90;;;;;;5033239;28;20309;-52
2022/02/03 16:02:26;;;;;;;5.50;2.30;;;7.40;99.90;;;;;;5028636;28;20290;-52
2022/02/03 16:18:52;;;;;;;2.80;2.60;;;7.40;99.90;;;;;;5045951;28;20244;-50
2022/02/03 16:21:28;;;;;;;2.90;2.55;;;7.40;99.90;;;;;;5028902;28;20552;-53
2022/02/03 16:24:09;;;;;;;7.07;4.20;;;7.40;99.90;;;;;;5026426;28;20453;-50
2022/02/03 16:26:58;;;;;;;4.47;3.45;;;7.40;99.90;;;;;;5039147;28;20206;-51
2022/02/03 16:52:35;;;;;;;4.53;3.25;;;7.40;99.90;;;;;;5028357;28;20738;-52
2022/02/03 16:55:09;;;;;;;3.65;3.00;;;7.40;99.90;;;;;;5047031;28;20227;-51
2022/02/03 16:57:38;;;;;;;3.25;2.95;;;7.40;99.90;;;;;;5037999;28;20686;-51
2022/02/03 17:00:13;;;;;;;5.78;4.20;;;7.40;99.90;;;;;;5039974;28;20246;-51
2022/02/03 17:03:01;;;;;;;3.97;3.58;;;7.40;99.90;;;;;;5047168;28;20701;-51
2022/02/03 17:05:33;;;;;;;3.45;3.10;;;7.40;99.90;;;;;;5051088;28;20617;-51
2022/02/03 17:08:01;;;;;;;3.88;3.42;;;7.40;99.90;;;;;;5051906;28;20281;-51
2022/02/03 17:10:33;;;;;;;3.65;3.35;;;7.40;99.90;;;;;;5051962;28;20226;-51
2022/02/03 17:13:01;;;;;;;3.58;3.28;;;7.40;99.90;;;;;;5052852;28;20197;-51
2022/02/03 17:15:29;;;;;;;4.13;3.72;;;7.40;99.90;;;;;;5051101;28;20242;-52
2022/02/03 17:17:58;;;;;;;4.55;3.28;;;7.40;99.90;;;;;;5050346;28;20246;-51
2022/02/03 17:20:30;;;;;;;3.25;2.90;;;7.40;99.90;;;;;;5051685;28;20250;-52
2022/02/03 17:23:01;;;;;;;3.30;3.00;;;7.40;99.90;;;;;;5051877;28;20214;-51
2022/02/03 17:25:40;;;;;;;3.85;3.30;;;7.40;99.90;;;;;;5049448;28;20218;-51
2022/02/03 17:28:34;;;;;;;4.10;3.70;;;7.40;99.90;;;;;;5031960;28;20216;-51
2022/02/03 17:31:08;;;;;;;4.32;3.90;;;7.40;99.90;;;;;;5035738;28;20276;-50
2022/02/03 17:45:47;;;;;;;4.00;3.60;;;7.40;99.90;;;;;;5047551;28;20673;-52
2022/02/03 18:08:27;;;;;;;3.90;3.60;;;7.40;99.90;;;;;;5031614;28;20659;-51
2022/02/03 18:10:59;;;;;;;4.30;3.88;;;7.40;99.90;;;;;;5035555;28;20293;-51
2022/02/03 18:30:18;;;;;;;3.88;3.40;;;7.40;99.90;;;;;;5046174;28;20585;-52
2022/02/03 18:33:16;;;;;;;4.40;4.10;;;7.40;99.90;;;;;;5032885;28;20272;-51
2022/02/03 18:36:09;;;;;;;4.38;3.80;;;7.40;99.90;;;;;;5048943;28;20480;-52
2022/02/03 18:50:15;;;;;;;4.22;3.83;;;7.40;99.90;;;;;;5008344;28;20220;-51
2022/02/03 18:53:01;;;;;;;4.22;3.63;;;7.40;99.90;;;;;;5030511;28;20193;-52
2022/02/03 18:55:35;;;;;;;4.18;3.58;;;7.40;99.90;;;;;;5032502;28;20268;-51
2022/02/03 18:58:12;;;;;;;3.50;3.20;;;7.40;99.90;;;;;;5038674;28;20604;-51
2022/02/03 19:23:37;;;;;;;5.32;4.75;;;7.40;99.90;;;;;;5049627;28;20224;-51
2022/02/03 20:05:50;;;;;;;4.55;3.47;;;7.40;99.90;;;;;;5034739;28;20241;-52
2022/02/03 20:08:29;;;;;;;3.50;3.20;;;7.40;99.90;;;;;;5048390;28;20202;-51
2022/02/03 20:10:59;;;;;;;4.35;3.95;;;7.40;99.90;;;;;;5039523;28;20234;-51
2022/02/03 20:13:27;;;;;;;4.88;3.65;;;7.40;99.90;;;;;;5037127;28;20197;-52
2022/02/03 20:15:56;;;;;;;5.25;4.13;;;7.40;99.90;;;;;;5035151;28;20226;-50
2022/02/03 20:18:24;;;;;;;4.43;3.58;;;7.40;99.90;;;;;;5034674;28;20212;-50
2022/02/03 20:20:52;;;;;;;5.38;3.65;;;7.40;99.90;;;;;;5031181;28;20770;-51
2022/02/03 20:23:22;;;;;;;4.47;3.95;;;7.40;99.90;;;;;;5027772;28;20290;-51
2022/02/03 20:25:53;;;;;;;6.50;4.22;;;7.40;99.90;;;;;;5026353;28;20630;-50
2022/02/03 20:28:22;;;;;;;4.47;3.95;;;7.30;99.90;;;;;;5027551;28;20194;-51
2022/02/03 20:30:50;;;;;;;6.22;4.80;;;7.40;99.90;;;;;;5034794;28;20301;-50
2022/02/03 20:33:18;;;;;;;4.10;3.55;;;7.40;99.90;;;;;;5036356;28;20632;-52
2022/02/03 20:35:48;;;;;;;4.28;3.85;;;7.40;99.90;;;;;;5038291;28;20250;-51
2022/02/03 20:38:16;;;;;;;6.28;4.35;;;7.40;99.90;;;;;;5033666;28;20292;-50
2022/02/03 20:40:44;;;;;;;5.63;4.05;;;7.40;99.90;;;;;;5036785;28;20219;-52
2022/02/03 20:43:12;;;;;;;4.20;3.80;;;7.40;99.90;;;;;;5044146;28;20616;-51
2022/02/03 20:45:43;;;;;;;4.88;4.32;;;7.40;99.90;;;;;;5049477;28;20217;-51
2022/02/03 20:48:12;;;;;;;4.15;3.65;;;7.40;99.90;;;;;;5049229;28;20211;-50
2022/02/03 20:50:41;;;;;;;4.85;3.72;;;7.40;99.90;;;;;;5030655;28;20243;-50
2022/02/03 20:53:10;;;;;;;4.45;3.97;;;7.40;99.90;;;;;;5030935;28;20202;-51
2022/02/03 20:55:38;;;;;;;5.15;4.65;;;7.40;99.90;;;;;;5030121;28;20377;-50
2022/02/03 20:58:06;;;;;;;5.07;4.45;;;7.40;99.90;;;;;;5031095;28;20202;-51
2022/02/03 21:00:41;;;;;;;5.10;4.13;;;7.40;99.90;;;;;;5044683;28;20219;-51
2022/02/03 21:03:18;;;;;;;5.47;4.50;;;7.40;99.90;;;;;;5050376;28;20451;-51
2022/02/03 21:05:47;;;;;;;4.90;4.50;;;7.40;99.90;;;;;;5030649;28;20281;-50
2022/02/03 21:08:18;;;;;;;4.97;4.45;;;7.40;99.90;;;;;;5032522;28;20216;-52
2022/02/03 21:10:48;;;;;;;6.00;4.40;;;7.40;99.90;;;;;;5040292;28;20628;-51
2022/02/03 21:13:17;;;;;;;4.97;4.22;;;7.40;99.90;;;;;;5039574;28;20587;-50
2022/02/03 21:15:45;;;;;;;4.85;4.18;;;7.40;99.90;;;;;;5030656;28;20248;-51
2022/02/03 21:18:16;;;;;;;5.32;4.65;;;7.40;99.90;;;;;;5035632;28;20290;-51
2022/02/03 21:20:46;;;;;;;3.88;3.42;;;7.40;99.90;;;;;;5032464;28;20780;-52
2022/02/03 21:23:15;;;;;;;6.00;4.63;;;7.40;99.90;;;;;;5051387;28;20221;-52
2022/02/03 21:25:46;;;;;;;5.05;4.60;;;7.40;99.90;;;;;;5048726;28;20638;-51
2022/02/03 21:28:20;;;;;;;5.55;4.65;;;7.40;99.90;;;;;;5039935;28;20188;-52
2022/02/03 21:30:49;;;;;;;6.10;4.82;;;7.40;99.90;;;;;;5042036;28;20331;-50
2022/02/03 21:33:23;;;;;;;5.68;4.90;;;7.40;99.90;;;;;;5036470;28;20201;-52
2022/02/03 21:35:55;;;;;;;4.60;4.25;;;7.40;99.90;;;;;;5038089;28;20279;-51
2022/02/03 21:38:23;;;;;;;7.05;4.70;;;7.30;99.90;;;;;;5030941;28;20211;-51
2022/02/03 21:40:52;;;;;;;4.85;4.35;;;7.40;99.90;;;;;;5042931;28;20292;-51
2022/02/03 21:43:20;;;;;;;4.82;4.05;;;7.30;99.90;;;;;;5033992;28;20203;-51
2022/02/03 21:45:48;;;;;;;5.03;3.97;;;7.40;99.90;;;;;;5036547;28;20240;-51
2022/02/03 21:48:18;;;;;;;4.05;3.65;;;7.40;99.90;;;;;;5043743;28;20201;-51
2022/02/03 21:50:46;;;;;;;4.47;3.70;;;7.40;99.90;;;;;;5041113;28;20248;-51
2022/02/03 21:53:18;;;;;;;5.03;4.35;;;7.40;99.90;;;;;;5050543;28;20196;-51